H.kanter — ESUB — position and weather

sailwx.info

Track history (hours):
 
Tides and Currents Weather Stations Pressure Air Temp Water Temp Dewpoint Dewpoint Depression Visibility Wind Speed Wind Dir Waves Ship Positions

H.kanter

Last reported at 2014-Nov-20 15:22 UTC. Time now 2014-Nov-24 15:20 UTC.
Position N 59°29' E 024°58'.

Length 33 m; draft 4.7 m.

Type: Tug. MMSI: 276504000.

Date/timePositionNaut miles runAvg speedWind from/ knotsBaromVisibWave heightAir tempDewpointWater temp
2014-Nov-20 15:22N 59°29' E 024°58'1 0.0
2014-Nov-19 00:33N 59°30' E 024°56'  
2014-Nov-16 15:33N 59°33' E 024°54'9 8.8
2014-Nov-16 14:33N 59°38' E 024°39'8 0.5
2014-Nov-15 21:33N 59°30' E 024°34'7 6.9
2014-Nov-15 20:33N 59°28' E 024°47'1 0.8
2014-Nov-15 19:33N 59°27' E 024°46'0 0.0
2014-Nov-15 18:32N 59°27' E 024°46'0 0.0
2014-Nov-15 17:33N 59°27' E 024°46'0 0.0
2014-Nov-15 16:33N 59°27' E 024°46'0 0.0
2014-Nov-15 15:31N 59°27' E 024°46'0 0.0
2014-Nov-15 14:32N 59°27' E 024°46'0 0.0
2014-Nov-15 13:32N 59°27' E 024°46'0 0.0
2014-Nov-15 12:33N 59°27' E 024°46'0 0.0
2014-Nov-15 11:28N 59°27' E 024°46'0 0.0
2014-Nov-15 10:31N 59°27' E 024°46'0 0.0
2014-Nov-15 09:32N 59°27' E 024°46'0 0.0
2014-Nov-15 08:33N 59°27' E 024°46'0 0.0
2014-Nov-15 07:33N 59°27' E 024°46'0 0.0
2014-Nov-15 06:31N 59°27' E 024°46'0 0.0
2014-Nov-15 05:32N 59°27' E 024°46'0 0.0
2014-Nov-15 04:32N 59°27' E 024°46'0 0.0
2014-Nov-15 03:33N 59°27' E 024°46'0 0.0
2014-Nov-15 02:25N 59°27' E 024°46'0 0.0
2014-Nov-15 01:32N 59°27' E 024°46'0 0.0
2014-Nov-15 00:32N 59°27' E 024°46'0 0.0
2014-Nov-14 23:30N 59°27' E 024°46'0 0.0
2014-Nov-14 22:31N 59°27' E 024°46'0 0.0
2014-Nov-14 21:22N 59°27' E 024°46'0 0.0
2014-Nov-14 20:32N 59°27' E 024°46'0 0.0
2014-Nov-14 19:33N 59°27' E 024°46'0 0.0
2014-Nov-14 18:33N 59°27' E 024°46'0 0.0
2014-Nov-14 17:31N 59°27' E 024°46'0 0.0
2014-Nov-14 16:32N 59°27' E 024°46'0 0.0
2014-Nov-14 15:29N 59°27' E 024°46'0 0.0
2014-Nov-14 14:33N 59°27' E 024°46'0 0.0
2014-Nov-14 12:31N 59°27' E 024°46'0 0.0
2014-Nov-14 11:32N 59°27' E 024°46'0 0.0
2014-Nov-14 10:30N 59°27' E 024°46'0 0.0
2014-Nov-14 09:33N 59°27' E 024°46'0 0.0
2014-Nov-14 08:31N 59°27' E 024°46'0 0.0
2014-Nov-14 07:32N 59°27' E 024°46'0 0.0
2014-Nov-14 06:32N 59°27' E 024°46'0 0.0
2014-Nov-14 05:30N 59°27' E 024°46'0 0.0
2014-Nov-14 04:31N 59°27' E 024°46'0 0.0
2014-Nov-14 03:31N 59°27' E 024°46'0 0.0
2014-Nov-14 02:32N 59°27' E 024°46'0 0.0
2014-Nov-14 01:33N 59°27' E 024°46'0 0.0
2014-Nov-14 00:33N 59°27' E 024°46'0 0.0
2014-Nov-13 23:31N 59°27' E 024°46'0 0.0
2014-Nov-13 22:32N 59°27' E 024°46'0 0.0
2014-Nov-13 21:32N 59°27' E 024°46'0 0.0
2014-Nov-13 20:33N 59°27' E 024°46'0 0.0
2014-Nov-13 19:31N 59°27' E 024°46'0 0.0
2014-Nov-13 18:31N 59°27' E 024°46'0 0.0
2014-Nov-13 17:32N 59°27' E 024°46'0 0.0
2014-Nov-13 16:33N 59°27' E 024°46'0 0.0
2014-Nov-13 15:30N 59°27' E 024°46'0 0.0
2014-Nov-13 14:31N 59°27' E 024°46'0 0.0
2014-Nov-13 13:32N 59°27' E 024°46'0 0.0
2014-Nov-13 12:29N 59°27' E 024°46'0 0.0
2014-Nov-13 11:33N 59°27' E 024°46'0 0.0
2014-Nov-13 10:31N 59°27' E 024°46'0 0.0
2014-Nov-13 09:31N 59°27' E 024°46'0 0.0
2014-Nov-13 08:29N 59°27' E 024°46'0 0.0
2014-Nov-13 07:33N 59°27' E 024°46'0 0.0
2014-Nov-13 06:30N 59°27' E 024°46'0 0.0
2014-Nov-13 05:31N 59°27' E 024°46'0 0.0
2014-Nov-13 04:29N 59°27' E 024°46'0 0.0
2014-Nov-13 03:32N 59°27' E 024°46'0 0.0
2014-Nov-13 02:33N 59°27' E 024°46'0 0.0
2014-Nov-13 01:31N 59°27' E 024°46'0 0.0
2014-Nov-13 00:31N 59°27' E 024°46'0 0.0
2014-Nov-12 23:32N 59°27' E 024°46'0 0.0
2014-Nov-12 22:30N 59°27' E 024°46'0 0.0
2014-Nov-12 21:27N 59°27' E 024°46'0 0.0
2014-Nov-12 20:31N 59°27' E 024°46'0 0.0
2014-Nov-12 19:32N 59°27' E 024°46'0 0.0
2014-Nov-12 18:32N 59°27' E 024°46'0 0.0
2014-Nov-12 17:33N 59°27' E 024°46'3 2.6
2014-Nov-12 16:33N 59°29' E 024°44'3 3.0
2014-Nov-12 15:32N 59°28' E 024°39'0 0.4
2014-Nov-12 14:27N 59°28' E 024°38'5 0.2
2014-Nov-11 16:31N 59°30' E 024°31'5 5.1
2014-Nov-11 15:33N 59°28' E 024°39'1 0.8
2014-Nov-11 14:33N 59°28' E 024°37'7 7.2
2014-Nov-11 13:33N 59°35' E 024°40'6 5.7
2014-Nov-11 12:34N 59°35' E 024°51'  
Track history (hours):
 
Tides and Currents Weather Stations Pressure Air Temp Water Temp Dewpoint Dewpoint Depression Visibility Wind Speed Wind Dir Waves Ship Positions

H.kanter

Last reported at 2014-Nov-20 15:22 UTC. Time now 2014-Nov-24 15:20 UTC.
Position N 59°29' E 024°58'.

Length 33 m; draft 4.7 m.

Type: Tug. MMSI: 276504000.

Date/timePositionNaut miles runAvg speedWind from/ knotsBaromVisibWave heightAir tempDewpointWater temp
2014-Nov-20 15:22N 59°29' E 024°58'1 0.0
2014-Nov-19 00:33N 59°30' E 024°56'  
2014-Nov-16 15:33N 59°33' E 024°54'9 8.8
2014-Nov-16 14:33N 59°38' E 024°39'8 0.5
2014-Nov-15 21:33N 59°30' E 024°34'7 6.9
2014-Nov-15 20:33N 59°28' E 024°47'1 0.8
2014-Nov-15 19:33N 59°27' E 024°46'0 0.0
2014-Nov-15 18:32N 59°27' E 024°46'0 0.0
2014-Nov-15 17:33N 59°27' E 024°46'0 0.0
2014-Nov-15 16:33N 59°27' E 024°46'0 0.0
2014-Nov-15 15:31N 59°27' E 024°46'0 0.0
2014-Nov-15 14:32N 59°27' E 024°46'0 0.0
2014-Nov-15 13:32N 59°27' E 024°46'0 0.0
2014-Nov-15 12:33N 59°27' E 024°46'0 0.0
2014-Nov-15 11:28N 59°27' E 024°46'0 0.0
2014-Nov-15 10:31N 59°27' E 024°46'0 0.0
2014-Nov-15 09:32N 59°27' E 024°46'0 0.0
2014-Nov-15 08:33N 59°27' E 024°46'0 0.0
2014-Nov-15 07:33N 59°27' E 024°46'0 0.0
2014-Nov-15 06:31N 59°27' E 024°46'0 0.0
2014-Nov-15 05:32N 59°27' E 024°46'0 0.0
2014-Nov-15 04:32N 59°27' E 024°46'0 0.0
2014-Nov-15 03:33N 59°27' E 024°46'0 0.0
2014-Nov-15 02:25N 59°27' E 024°46'0 0.0
2014-Nov-15 01:32N 59°27' E 024°46'0 0.0
2014-Nov-15 00:32N 59°27' E 024°46'0 0.0
2014-Nov-14 23:30N 59°27' E 024°46'0 0.0
2014-Nov-14 22:31N 59°27' E 024°46'0 0.0
2014-Nov-14 21:22N 59°27' E 024°46'0 0.0
2014-Nov-14 20:32N 59°27' E 024°46'0 0.0
2014-Nov-14 19:33N 59°27' E 024°46'0 0.0
2014-Nov-14 18:33N 59°27' E 024°46'0 0.0
2014-Nov-14 17:31N 59°27' E 024°46'0 0.0
2014-Nov-14 16:32N 59°27' E 024°46'0 0.0
2014-Nov-14 15:29N 59°27' E 024°46'0 0.0
2014-Nov-14 14:33N 59°27' E 024°46'0 0.0
2014-Nov-14 12:31N 59°27' E 024°46'0 0.0
2014-Nov-14 11:32N 59°27' E 024°46'0 0.0
2014-Nov-14 10:30N 59°27' E 024°46'0 0.0
2014-Nov-14 09:33N 59°27' E 024°46'0 0.0
2014-Nov-14 08:31N 59°27' E 024°46'0 0.0
2014-Nov-14 07:32N 59°27' E 024°46'0 0.0
2014-Nov-14 06:32N 59°27' E 024°46'0 0.0
2014-Nov-14 05:30N 59°27' E 024°46'0 0.0
2014-Nov-14 04:31N 59°27' E 024°46'0 0.0
2014-Nov-14 03:31N 59°27' E 024°46'0 0.0
2014-Nov-14 02:32N 59°27' E 024°46'0 0.0
2014-Nov-14 01:33N 59°27' E 024°46'0 0.0
2014-Nov-14 00:33N 59°27' E 024°46'0 0.0
2014-Nov-13 23:31N 59°27' E 024°46'0 0.0
2014-Nov-13 22:32N 59°27' E 024°46'0 0.0
2014-Nov-13 21:32N 59°27' E 024°46'0 0.0
2014-Nov-13 20:33N 59°27' E 024°46'0 0.0
2014-Nov-13 19:31N 59°27' E 024°46'0 0.0
2014-Nov-13 18:31N 59°27' E 024°46'0 0.0
2014-Nov-13 17:32N 59°27' E 024°46'0 0.0
2014-Nov-13 16:33N 59°27' E 024°46'0 0.0
2014-Nov-13 15:30N 59°27' E 024°46'0 0.0
2014-Nov-13 14:31N 59°27' E 024°46'0 0.0
2014-Nov-13 13:32N 59°27' E 024°46'0 0.0
2014-Nov-13 12:29N 59°27' E 024°46'0 0.0
2014-Nov-13 11:33N 59°27' E 024°46'0 0.0
2014-Nov-13 10:31N 59°27' E 024°46'0 0.0
2014-Nov-13 09:31N 59°27' E 024°46'0 0.0
2014-Nov-13 08:29N 59°27' E 024°46'0 0.0
2014-Nov-13 07:33N 59°27' E 024°46'0 0.0
2014-Nov-13 06:30N 59°27' E 024°46'0 0.0
2014-Nov-13 05:31N 59°27' E 024°46'0 0.0
2014-Nov-13 04:29N 59°27' E 024°46'0 0.0
2014-Nov-13 03:32N 59°27' E 024°46'0 0.0
2014-Nov-13 02:33N 59°27' E 024°46'0 0.0
2014-Nov-13 01:31N 59°27' E 024°46'0 0.0
2014-Nov-13 00:31N 59°27' E 024°46'0 0.0
2014-Nov-12 23:32N 59°27' E 024°46'0 0.0
2014-Nov-12 22:30N 59°27' E 024°46'0 0.0
2014-Nov-12 21:27N 59°27' E 024°46'0 0.0
2014-Nov-12 20:31N 59°27' E 024°46'0 0.0
2014-Nov-12 19:32N 59°27' E 024°46'0 0.0
2014-Nov-12 18:32N 59°27' E 024°46'0 0.0
2014-Nov-12 17:33N 59°27' E 024°46'3 2.6
2014-Nov-12 16:33N 59°29' E 024°44'3 3.0
2014-Nov-12 15:32N 59°28' E 024°39'0 0.4
2014-Nov-12 14:27N 59°28' E 024°38'5 0.2
2014-Nov-11 16:31N 59°30' E 024°31'5 5.1
2014-Nov-11 15:33N 59°28' E 024°39'1 0.8
2014-Nov-11 14:33N 59°28' E 024°37'7 7.2
2014-Nov-11 13:33N 59°35' E 024°40'6 5.7
2014-Nov-11 12:34N 59°35' E 024°51'  

Dump ship's entire track history